5/3 a 12/3 - Templado a caluroso C y N, variable Patagonia, tormentas aisladas NOA y C

Avatar de Usuario
Ale de Castelar
Mensajes: 28411
Registrado: Sab Mar 03, 2012 12:25 pm
Ubicación: Caballito

Re: 5/3 a 12/3 - Templado a caluroso C y N, variable Patagonia, tormentas aisladas NOA y C

Mensaje por Ale de Castelar » Sab Mar 13, 2021 12:45 am

Diluvia en el Gran Mendoza

Avatar de Usuario
Diecha
Mensajes: 15104
Registrado: Jue Ago 25, 2011 9:31 pm
Ubicación: Lomas de Zamora

Re: 5/3 a 12/3 - Templado a caluroso C y N, variable Patagonia, tormentas aisladas NOA y C

Mensaje por Diecha » Sab Mar 13, 2021 1:00 am

Imagen

Imagen
Spoiler
Mostrar
Imagen
Imagen
Imagen
Imagen
Imagen
Imagen
Imagen
Imagen
Imagen
Imagen
Imagen
Imagen
Imagen
Última edición por Diecha el Sab Mar 13, 2021 1:13 pm, editado 1 vez en total.

Avatar de Usuario
Ale de Castelar
Mensajes: 28411
Registrado: Sab Mar 03, 2012 12:25 pm
Ubicación: Caballito

Re: 5/3 a 12/3 - Templado a caluroso C y N, variable Patagonia, tormentas aisladas NOA y C

Mensaje por Ale de Castelar » Sab Mar 13, 2021 8:56 am

Asi llovia anoche en La Quiaca con menos de 10 años


Avatar de Usuario
Santiago Linari
Mensajes: 8686
Registrado: Sab Dic 29, 2012 4:28 pm
Ubicación: Challao, Mendoza

Re: 5/3 a 12/3 - Templado a caluroso C y N, variable Patagonia, tormentas aisladas NOA y C

Mensaje por Santiago Linari » Sab Mar 13, 2021 12:51 pm

Ale de Castelar escribió:
Sab Mar 13, 2021 12:45 am
Diluvia en el Gran Mendoza
Sí, estaba en la Arístides y cayó un diluvio de 15 minutos aproximadamente. Después siguió lloviendo como una hora pero más débil. Fue una tormenta super localizada, siguiendo la tónica de este año de que Capital tiene muchísima suerte con las tormentas.
Mendoza Observatorio acumuló 5 mm, pero donde estaba yo a ojo fue bastante más.
Fue la primera noche de unos cuantos días inestables.
¡Oops!

Algo salió mal

Avatar de Usuario
Diecha
Mensajes: 15104
Registrado: Jue Ago 25, 2011 9:31 pm
Ubicación: Lomas de Zamora

Re: 5/3 a 12/3 - Templado a caluroso C y N, variable Patagonia, tormentas aisladas NOA y C

Mensaje por Diecha » Sab Mar 13, 2021 1:12 pm

Buenas.

Imagen

Imagen
Spoiler
Mostrar
Imagen
Imagen
Imagen
Imagen
Imagen
Imagen
Imagen
Imagen
Imagen
Imagen
Imagen
Imagen
Imagen
Imagen
Imagen

and96
Mensajes: 6334
Registrado: Mié Ago 15, 2012 2:32 pm
Ubicación: Tandil, BA

Re: 5/3 a 12/3 - Templado a caluroso C y N, variable Patagonia, tormentas aisladas NOA y C

Mensaje por and96 » Sab Mar 13, 2021 2:23 pm

Tarde cálida y soleado por acá. 27,3°C a las 14 hs

Avatar de Usuario
Diecha
Mensajes: 15104
Registrado: Jue Ago 25, 2011 9:31 pm
Ubicación: Lomas de Zamora

Re: 5/3 a 12/3 - Templado a caluroso C y N, variable Patagonia, tormentas aisladas NOA y C

Mensaje por Diecha » Sab Mar 13, 2021 3:09 pm

- General Pico 15 hs: SAZG 131800Z 36011KT 9999 FEW030 30/16 Q1012
- Santa Roaa 15 hs: SAZR 131800Z 36012KT CAVOK 32/16 Q1013

Imagen

- Bahía Blanca 15 hs: SAZB 131800Z 32013KT 9999 FEW060TCU SCT100 31/14 Q1013

Imagen

Avatar de Usuario
Ernest
Mensajes: 12145
Registrado: Vie Jul 17, 2009 10:54 pm
Ubicación: Balvanera, CABA

Re: 5/3 a 12/3 - Templado a caluroso C y N, variable Patagonia, tormentas aisladas NOA y C

Mensaje por Ernest » Sab Mar 13, 2021 3:48 pm

Seguimos por aquí: viewtopic.php?f=9&t=6336
Did you want to talk about the weather, or were you just making chitchat?

Twitter: @ErnestoAtmoII

Avatar de Usuario
Ale de Castelar
Mensajes: 28411
Registrado: Sab Mar 03, 2012 12:25 pm
Ubicación: Caballito

Re: 5/3 a 12/3 - Templado a caluroso C y N, variable Patagonia, tormentas aisladas NOA y C

Mensaje por Ale de Castelar » Sab Mar 13, 2021 5:59 pm

Algo de nieve granulada en el Viaducto en San Antonio de los Cobres ayer en un dia tremendamente inestable


Avatar de Usuario
Fedex
Mensajes: 3174
Registrado: Jue Jul 17, 2014 3:30 pm
Ubicación: Villa Ballester, San Martin, Buenos Aires
Contactar:

Re: 5/3 a 12/3 - Templado a caluroso C y N, variable Patagonia, tormentas aisladas NOA y C

Mensaje por Fedex » Sab Mar 13, 2021 6:08 pm

Lindas

Imagen
Cada vez que se superan los 24°C de Td, un gatito renace.

#MuerteALasLineas

El corazón late y es suficiente

Responder